AC887 LOWW-CYYZ
Flight info
| Callsign | AC887 |
|---|---|
| Flight time | N/A |
| Altitude | 34000 |
| Route | MEDIX DCT LAMSI DCT MAMOR DCT PETIX DCT TUSUK DCT ADKUV DCT NIK L610 KOPUL Q63 ICTAM T421 DIDZA DCT CESQA DCT BIBPE DCT OKTAD DCT MEDOG DCT PEMOB DCT BAKUR DCT NEBIN/M082F340 DCT 54N020W 54N030W 5330N04000W 52N050W DCT TUDEP/N0474F340 N530A MIILS/N0471F360 DCT LETAK IMEBA9 |
| Aircraft | B77W/H-SDE1E2E3FGHIJ2J3J4J5M1RWXY/LB1D1 |
Departure
| Time | 2026-04-24 20:44 |
|---|---|
| Airport | Vienna International Airport (LOWW) |
Arrival
| Time | N/A |
|---|---|
| Airport | Toronto Pearson International Airport (CYYZ) |
| Time | Latitude | Longitude | Altitude | Speed | Heading |
|---|---|---|---|---|---|
| 2026-04-24 20:19 | 48.11859 | 16.56942 | 628 ft | 0 kts | 206° |
| 2026-04-24 20:32 | 48.11866 | 16.56947 | 632 ft | 4 kts | 204° |
| 2026-04-24 20:32 | 48.11891 | 16.56960 | 629 ft | 4 kts | 189° |
| 2026-04-24 20:33 | 48.11918 | 16.56962 | 629 ft | 4 kts | 167° |
| 2026-04-24 20:33 | 48.11940 | 16.56946 | 614 ft | 4 kts | 128° |
| 2026-04-24 20:33 | 48.11945 | 16.56936 | 629 ft | 3 kts | 116° |
| 2026-04-24 20:36 | 48.11942 | 16.56945 | 614 ft | 6 kts | 116° |
| 2026-04-24 20:36 | 48.11911 | 16.57041 | 627 ft | 11 kts | 116° |
| 2026-04-24 20:36 | 48.11877 | 16.57146 | 621 ft | 11 kts | 116° |
| 2026-04-24 20:37 | 48.11836 | 16.57271 | 625 ft | 17 kts | 116° |
| 2026-04-24 20:37 | 48.11742 | 16.57373 | 621 ft | 18 kts | 162° |
| 2026-04-24 20:37 | 48.11624 | 16.57423 | 627 ft | 18 kts | 164° |
| 2026-04-24 20:37 | 48.11505 | 16.57469 | 616 ft | 18 kts | 175° |
| 2026-04-24 20:38 | 48.11395 | 16.57391 | 629 ft | 18 kts | 208° |
| 2026-04-24 20:38 | 48.11298 | 16.57321 | 624 ft | 14 kts | 205° |
| 2026-04-24 20:38 | 48.11223 | 16.57266 | 623 ft | 9 kts | 206° |
| 2026-04-24 20:38 | 48.11220 | 16.57264 | 614 ft | 0 kts | 206° |
| 2026-04-24 20:39 | 48.11219 | 16.57264 | 614 ft | 2 kts | 200° |
| 2026-04-24 20:39 | 48.11195 | 16.57312 | 629 ft | 9 kts | 114° |
| 2026-04-24 20:39 | 48.11168 | 16.57399 | 623 ft | 11 kts | 115° |
| 2026-04-24 20:40 | 48.11130 | 16.57517 | 622 ft | 13 kts | 115° |
| 2026-04-24 20:40 | 48.11093 | 16.57628 | 625 ft | 10 kts | 122° |
| 2026-04-24 20:40 | 48.11043 | 16.57647 | 622 ft | 4 kts | 200° |
| 2026-04-24 20:40 | 48.11041 | 16.57646 | 621 ft | 0 kts | 207° |
| 2026-04-24 20:41 | 48.11041 | 16.57645 | 621 ft | 2 kts | 207° |
| 2026-04-24 20:42 | 48.10998 | 16.57613 | 621 ft | 12 kts | 206° |
| 2026-04-24 20:42 | 48.10935 | 16.57496 | 614 ft | 17 kts | 276° |
| 2026-04-24 20:42 | 48.10964 | 16.57387 | 625 ft | 0 kts | 296° |
| 2026-04-24 20:43 | 48.10992 | 16.57300 | 621 ft | 29 kts | 296° |
| 2026-04-24 20:43 | 48.11192 | 16.56683 | 624 ft | 101 kts | 296° |
| 2026-04-24 20:43 | 48.11594 | 16.55447 | 623 ft | 161 kts | 296° |
| 2026-04-24 20:43 | 48.12143 | 16.53752 | 770 ft | 191 kts | 297° |
| 2026-04-24 20:44 | 48.12746 | 16.51976 | 1373 ft | 189 kts | 294° |
| 2026-04-24 20:44 | 48.12973 | 16.50007 | 1795 ft | 205 kts | 261° |
| 2026-04-24 20:44 | 48.12248 | 16.48031 | 1940 ft | 234 kts | 223° |
| 2026-04-24 20:44 | 48.10746 | 16.46986 | 2332 ft | 246 kts | 190° |
| 2026-04-24 20:45 | 48.09074 | 16.46607 | 2939 ft | 245 kts | 192° |
| 2026-04-24 20:45 | 48.07348 | 16.46056 | 3231 ft | 262 kts | 196° |
| 2026-04-24 20:45 | 48.05592 | 16.45169 | 3556 ft | 271 kts | 215° |
| 2026-04-24 20:45 | 48.04184 | 16.43322 | 4010 ft | 272 kts | 231° |
| 2026-04-24 20:46 | 48.03323 | 16.41936 | 4368 ft | 275 kts | 231° |
| 2026-04-24 20:46 | 48.02011 | 16.39886 | 5190 ft | 272 kts | 230° |
| 2026-04-24 20:46 | 48.00643 | 16.37944 | 5973 ft | 272 kts | 226° |
| 2026-04-24 20:46 | 47.99244 | 16.36124 | 6706 ft | 272 kts | 226° |
| 2026-04-24 20:47 | 47.97809 | 16.34258 | 7280 ft | 274 kts | 229° |
| 2026-04-24 20:47 | 47.96708 | 16.32003 | 7639 ft | 270 kts | 257° |
| 2026-04-24 20:47 | 47.96484 | 16.29287 | 8165 ft | 262 kts | 275° |
| 2026-04-24 20:47 | 47.96661 | 16.26576 | 8636 ft | 264 kts | 287° |
| 2026-04-24 20:48 | 47.97257 | 16.23986 | 9185 ft | 265 kts | 295° |
| 2026-04-24 20:48 | 47.97986 | 16.21449 | 9862 ft | 266 kts | 296° |
| 2026-04-24 20:48 | 47.98736 | 16.18894 | 10355 ft | 274 kts | 296° |
| 2026-04-24 20:48 | 47.99525 | 16.16189 | 10517 ft | 295 kts | 296° |
| 2026-04-24 20:49 | 48.00362 | 16.13271 | 10688 ft | 316 kts | 295° |
| 2026-04-24 20:49 | 48.01244 | 16.10139 | 10845 ft | 338 kts | 295° |
| 2026-04-24 20:49 | 48.02164 | 16.06823 | 11222 ft | 352 kts | 295° |
| 2026-04-24 20:49 | 48.03103 | 16.03392 | 11765 ft | 362 kts | 294° |
| 2026-04-24 20:50 | 48.04053 | 15.99876 | 12491 ft | 368 kts | 294° |
| 2026-04-24 20:50 | 48.05025 | 15.96255 | 13293 ft | 373 kts | 294° |
| 2026-04-24 20:50 | 48.05979 | 15.92681 | 13982 ft | 379 kts | 294° |
| 2026-04-24 20:50 | 48.06974 | 15.88943 | 14675 ft | 384 kts | 294° |
| 2026-04-24 20:51 | 48.07964 | 15.85215 | 15428 ft | 387 kts | 294° |
| 2026-04-24 20:51 | 48.08953 | 15.81485 | 16197 ft | 390 kts | 294° |
| 2026-04-24 20:51 | 48.09955 | 15.77705 | 16939 ft | 393 kts | 293° |
| 2026-04-24 20:51 | 48.10965 | 15.73881 | 17650 ft | 398 kts | 293° |
| 2026-04-24 20:52 | 48.11987 | 15.70006 | 18366 ft | 402 kts | 293° |
| 2026-04-24 20:52 | 48.13017 | 15.66098 | 18992 ft | 406 kts | 293° |
| 2026-04-24 20:52 | 48.14059 | 15.62138 | 19604 ft | 410 kts | 293° |
| 2026-04-24 20:52 | 48.15107 | 15.58146 | 20216 ft | 414 kts | 293° |
| 2026-04-24 20:53 | 48.16149 | 15.54170 | 20822 ft | 418 kts | 293° |
| 2026-04-24 20:53 | 48.17226 | 15.50054 | 21454 ft | 421 kts | 293° |
| 2026-04-24 20:53 | 48.18282 | 15.46011 | 22037 ft | 425 kts | 293° |
| 2026-04-24 20:53 | 48.19365 | 15.41862 | 22592 ft | 429 kts | 292° |
| 2026-04-24 20:54 | 48.20470 | 15.37618 | 23156 ft | 434 kts | 292° |
| 2026-04-24 20:54 | 48.21554 | 15.33445 | 23690 ft | 438 kts | 292° |
| 2026-04-24 20:54 | 48.22661 | 15.29172 | 24163 ft | 441 kts | 292° |
| 2026-04-24 20:54 | 48.23773 | 15.24874 | 24656 ft | 443 kts | 292° |
| 2026-04-24 20:55 | 48.24890 | 15.20551 | 25161 ft | 446 kts | 292° |
| 2026-04-24 20:55 | 48.26012 | 15.16202 | 25636 ft | 448 kts | 292° |
| 2026-04-24 20:55 | 48.27139 | 15.11820 | 26094 ft | 451 kts | 292° |
| 2026-04-24 20:55 | 48.28271 | 15.07416 | 26533 ft | 454 kts | 292° |
| 2026-04-24 20:56 | 48.29409 | 15.02976 | 26962 ft | 457 kts | 292° |
| 2026-04-24 20:56 | 48.30558 | 14.98488 | 27370 ft | 460 kts | 292° |
| 2026-04-24 20:56 | 48.31704 | 14.93999 | 27800 ft | 462 kts | 292° |
| 2026-04-24 20:56 | 48.32859 | 14.89469 | 28209 ft | 465 kts | 292° |
| 2026-04-24 20:57 | 48.34015 | 14.84926 | 28605 ft | 467 kts | 292° |
| 2026-04-24 20:57 | 48.35176 | 14.80354 | 29050 ft | 468 kts | 292° |
| 2026-04-24 20:57 | 48.36335 | 14.75773 | 29483 ft | 468 kts | 291° |
| 2026-04-24 20:57 | 48.37490 | 14.71207 | 29986 ft | 467 kts | 291° |
| 2026-04-24 20:58 | 48.38642 | 14.66640 | 30452 ft | 465 kts | 291° |
| 2026-04-24 20:58 | 48.39784 | 14.62103 | 30900 ft | 463 kts | 291° |
| 2026-04-24 20:58 | 48.40907 | 14.57635 | 31314 ft | 462 kts | 291° |
| 2026-04-24 20:58 | 48.42054 | 14.53059 | 31725 ft | 461 kts | 291° |
| 2026-04-24 20:59 | 48.43170 | 14.48602 | 32109 ft | 460 kts | 291° |
| 2026-04-24 20:59 | 48.44294 | 14.44104 | 32515 ft | 458 kts | 291° |
| 2026-04-24 20:59 | 48.45412 | 14.39619 | 32898 ft | 457 kts | 291° |
| 2026-04-24 20:59 | 48.46575 | 14.34947 | 33249 ft | 456 kts | 291° |
| 2026-04-24 21:00 | 48.47641 | 14.30656 | 33532 ft | 457 kts | 291° |
| 2026-04-24 21:00 | 48.48750 | 14.26179 | 33876 ft | 456 kts | 291° |
| 2026-04-24 21:00 | 48.49859 | 14.21696 | 34052 ft | 458 kts | 291° |
| 2026-04-24 21:00 | 48.50973 | 14.17182 | 34091 ft | 460 kts | 291° |
| 2026-04-24 21:01 | 48.53189 | 14.08176 | 34101 ft | 454 kts | 291° |
| 2026-04-24 21:01 | 48.55374 | 13.99262 | 34110 ft | 452 kts | 290° |
| 2026-04-24 21:02 | 48.57549 | 13.90350 | 34110 ft | 452 kts | 290° |
| 2026-04-24 21:02 | 48.59717 | 13.81435 | 34113 ft | 453 kts | 290° |
| 2026-04-24 21:03 | 48.61884 | 13.72483 | 34111 ft | 454 kts | 290° |
| 2026-04-24 21:03 | 48.64049 | 13.63511 | 34111 ft | 455 kts | 290° |
| 2026-04-24 21:04 | 48.66103 | 13.54457 | 34103 ft | 456 kts | 286° |
| 2026-04-24 21:04 | 48.67735 | 13.45192 | 34116 ft | 456 kts | 284° |
| 2026-04-24 21:05 | 48.69299 | 13.35867 | 34112 ft | 457 kts | 284° |
| 2026-04-24 21:05 | 48.70898 | 13.26556 | 34115 ft | 457 kts | 285° |
| 2026-04-24 21:06 | 48.72505 | 13.17311 | 34113 ft | 457 kts | 285° |
| 2026-04-24 21:06 | 48.74121 | 13.08003 | 34118 ft | 456 kts | 284° |
| 2026-04-24 21:07 | 48.75727 | 12.98701 | 34114 ft | 456 kts | 284° |
| 2026-04-24 21:07 | 48.77331 | 12.89353 | 34117 ft | 455 kts | 284° |
| 2026-04-24 21:08 | 48.78904 | 12.80137 | 34116 ft | 454 kts | 284° |
| 2026-04-24 21:08 | 48.80480 | 12.70855 | 34117 ft | 454 kts | 284° |
| 2026-04-24 21:09 | 48.82047 | 12.61571 | 34118 ft | 454 kts | 284° |
| 2026-04-24 21:09 | 48.83606 | 12.52286 | 34117 ft | 454 kts | 284° |
| 2026-04-24 21:10 | 48.85159 | 12.42987 | 34120 ft | 454 kts | 284° |
| 2026-04-24 21:10 | 48.86703 | 12.33697 | 34117 ft | 453 kts | 284° |
| 2026-04-24 21:11 | 48.88264 | 12.24431 | 34113 ft | 452 kts | 286° |
| 2026-04-24 21:12 | 48.93159 | 12.07920 | 34122 ft | 449 kts | 295° |
| 2026-04-24 21:12 | 48.95873 | 11.99364 | 34130 ft | 449 kts | 295° |
| 2026-04-24 21:13 | 48.98602 | 11.90696 | 34132 ft | 459 kts | 294° |
| 2026-04-24 21:14 | 49.04115 | 11.73139 | 34120 ft | 459 kts | 294° |
| 2026-04-24 21:14 | 49.06856 | 11.64377 | 34124 ft | 457 kts | 294° |
| 2026-04-24 21:15 | 49.09583 | 11.55625 | 34128 ft | 456 kts | 294° |
| 2026-04-24 21:15 | 49.12299 | 11.46876 | 34131 ft | 457 kts | 294° |
| 2026-04-24 21:16 | 49.15013 | 11.38101 | 34132 ft | 457 kts | 294° |
| 2026-04-24 21:16 | 49.17727 | 11.29299 | 34136 ft | 458 kts | 294° |
| 2026-04-24 21:17 | 49.20438 | 11.20470 | 34155 ft | 459 kts | 294° |
| 2026-04-24 21:18 | 49.25933 | 11.02486 | 34143 ft | 458 kts | 293° |
| 2026-04-24 21:18 | 49.28595 | 10.93722 | 34154 ft | 457 kts | 293° |
| 2026-04-24 21:19 | 49.31264 | 10.84906 | 34160 ft | 456 kts | 293° |
| 2026-04-24 21:19 | 49.33927 | 10.76084 | 34156 ft | 455 kts | 293° |
| 2026-04-24 21:20 | 49.38079 | 10.62973 | 34157 ft | 456 kts | 295° |
| 2026-04-24 21:21 | 49.40900 | 10.54255 | 34159 ft | 456 kts | 294° |
| 2026-04-24 21:21 | 49.43703 | 10.45505 | 34147 ft | 457 kts | 294° |
| 2026-04-24 21:22 | 49.46491 | 10.36733 | 34148 ft | 457 kts | 294° |
| 2026-04-24 21:22 | 49.49272 | 10.27945 | 34158 ft | 458 kts | 294° |
| 2026-04-24 21:23 | 49.52053 | 10.19127 | 34174 ft | 458 kts | 294° |
| 2026-04-24 21:23 | 49.54824 | 10.10308 | 34162 ft | 458 kts | 294° |
| 2026-04-24 21:24 | 49.57586 | 10.01489 | 34154 ft | 456 kts | 294° |
| 2026-04-24 21:24 | 49.60331 | 9.92692 | 34154 ft | 455 kts | 294° |
| 2026-04-24 21:25 | 49.63063 | 9.83907 | 34155 ft | 454 kts | 293° |
| 2026-04-24 21:25 | 49.65787 | 9.75114 | 34157 ft | 454 kts | 293° |
| 2026-04-24 21:26 | 49.67146 | 9.70717 | 34155 ft | 454 kts | 293° |